Observation data for Pampa on 12/08/2018      Previous  Date  Next       Current Mesonet Observations  Soil Data  Daily Summary Page  Observations in Plain Language
KPMS 080600Z 04006KT M02/M06 A3031 RMK A01 T10181063  RH  072%=      5-min Rain = 0
KPMS 080605Z 04005KT M02/M06 A3031 RMK A01 T10181062  RH  073%=      5-min Rain = 0
KPMS 080610Z 03005KT M02/M06 A3031 RMK A01 T10181063  RH  072%=      5-min Rain = 0
KPMS 080615Z 03006KT M02/M07 A3031 RMK A01 T10181065  RH  071%=      5-min Rain = 0
KPMS 080620Z 03005KT M02/M07 A3031 RMK A01 T10191067  RH  070%=      5-min Rain = 0
KPMS 080625Z 04004KT M02/M07 A3032 RMK A01 T10191067  RH  070%=      5-min Rain = 0
KPMS 080630Z 02005KT M02/M07 A3032 RMK A01 T10181066  RH  071%=      5-min Rain = 0
KPMS 080635Z 03005KT M02/M07 A3032 RMK A01 T10191069  RH  069%=      5-min Rain = 0
KPMS 080640Z 04006KT M02/M07 A3032 RMK A01 T10191071  RH  068%=      5-min Rain = 0
KPMS 080645Z 03006KT M02/M07 A3032 RMK A01 T10191073  RH  068%=      5-min Rain = 0
KPMS 080650Z 04006KT M02/M07 A3031 RMK A01 T10191073  RH  067%=      5-min Rain = 0
KPMS 080655Z 03006KT M02/M07 A3031 RMK A01 T10201074  RH  067%=      5-min Rain = 0
KPMS 080700Z 03006KT M02/M07 A3031 RMK A01 T10201074  RH  067%=      5-min Rain = 0
KPMS 080705Z 03006KT M02/M07 A3031 RMK A01 T10201073  RH  068%=      5-min Rain = 0
KPMS 080710Z 03006KT M02/M07 A303 RMK A01 T10201072  RH  068%=      5-min Rain = 0
KPMS 080715Z 02007KT M02/M07 A303 RMK A01 T10201074  RH  067%=      5-min Rain = 0
KPMS 080720Z 02007KT M02/M08 A303 RMK A01 T10211078  RH  066%=      5-min Rain = 0
KPMS 080725Z 03006KT M02/M08 A303 RMK A01 T10211080  RH  065%=      5-min Rain = 0
KPMS 080730Z 02005KT M02/M08 A303 RMK A01 T10211081  RH  064%=      5-min Rain = 0
KPMS 080735Z 02005KT M02/M08 A303 RMK A01 T10211078  RH  066%=      5-min Rain = 0
KPMS 080740Z 01006KT M02/M08 A303 RMK A01 T10211077  RH  066%=      5-min Rain = 0
KPMS 080745Z 01005KT M02/M08 A303 RMK A01 T10211079  RH  065%=      5-min Rain = 0
KPMS 080750Z 02006KT M02/M08 A3031 RMK A01 T10211080  RH  065%=      5-min Rain = 0
KPMS 080755Z 02005KT M02/M08 A3031 RMK A01 T10211079  RH  065%=      5-min Rain = 0
KPMS 080800Z 01005KT M02/M08 A3031 RMK A01 T10211078  RH  066%=      5-min Rain = 0
KPMS 080805Z 01005KT M02/M08 A3031 RMK A01 T10211077  RH  066%=      5-min Rain = 0
KPMS 080810Z 02005KT M02/M08 A3031 RMK A01 T10211077  RH  066%=      5-min Rain = 0
KPMS 080815Z 01005KT M02/M08 A3031 RMK A01 T10211077  RH  066%=      5-min Rain = 0
KPMS 080820Z 01005KT M02/M08 A3031 RMK A01 T10211075  RH  067%=      5-min Rain = 0
KPMS 080825Z 02006KT M02/M08 A3031 RMK A01 T10211080  RH  065%=      5-min Rain = 0
KPMS 080830Z 03005KT M02/M08 A3031 RMK A01 T10221077  RH  067%=      5-min Rain = 0
KPMS 080835Z 03004KT M02/M07 A3031 RMK A01 T10221074  RH  068%=      5-min Rain = 0
KPMS 080840Z 04006KT M02/M08 A303 RMK A01 T10221081  RH  064%=      5-min Rain = 0
KPMS 080845Z 04004KT M02/M08 A303 RMK A01 T10221081  RH  065%=      5-min Rain = 0
KPMS 080850Z 03004KT M02/M08 A303 RMK A01 T10221081  RH  065%=      5-min Rain = 0
KPMS 080855Z 03006KT M02/M08 A303 RMK A01 T10221079  RH  065%=      5-min Rain = 0
KPMS 080900Z 03006KT M02/M08 A303 RMK A01 T10211078  RH  066%=      5-min Rain = 0
KPMS 080905Z 02006KT M02/M08 A303 RMK A01 T10221078  RH  066%=      5-min Rain = 0
KPMS 080910Z 02006KT M02/M08 A303 RMK A01 T10221080  RH  065%=      5-min Rain = 0
KPMS 080915Z 02007KT M02/M08 A3029 RMK A01 T10231082  RH  064%=      5-min Rain = 0
KPMS 080920Z 03006KT M02/M08 A3029 RMK A01 T10231078  RH  067%=      5-min Rain = 0
KPMS 080925Z 02006KT M02/M08 A3029 RMK A01 T10231079  RH  066%=      5-min Rain = 0
KPMS 080930Z 02006KT M02/M08 A3029 RMK A01 T10231081  RH  065%=      5-min Rain = 0
KPMS 080935Z 02006KT M02/M08 A3029 RMK A01 T10241080  RH  066%=      5-min Rain = 0
KPMS 080940Z 02007KT M02/M08 A3029 RMK A01 T10241078  RH  067%=      5-min Rain = 0
KPMS 080945Z 03006KT M02/M08 A3028 RMK A01 T10231078  RH  067%=      5-min Rain = 0
KPMS 080950Z 02005KT M02/M08 A3028 RMK A01 T10241077  RH  068%=      5-min Rain = 0
KPMS 080955Z 02005KT M02/M08 A3028 RMK A01 T10231076  RH  068%=      5-min Rain = 0
KPMS 081000Z 01005KT M02/M08 A3028 RMK A01 T10231078  RH  067%=      5-min Rain = 0
KPMS 081005Z 01006KT M02/M08 A3027 RMK A01 T10231079  RH  066%=      5-min Rain = 0
KPMS 081010Z 01008KT M02/M08 A3027 RMK A01 T10231076  RH  068%=      5-min Rain = 0
KPMS 081015Z 00007KT M02/M08 A3027 RMK A01 T10231075  RH  068%=      5-min Rain = 0
KPMS 081020Z 36006KT M02/M08 A3028 RMK A01 T10231077  RH  067%=      5-min Rain = 0
KPMS 081025Z 00006KT M02/M08 A3028 RMK A01 T10231078  RH  067%=      5-min Rain = 0
KPMS 081030Z 00007KT M02/M08 A3028 RMK A01 T10231077  RH  067%=      5-min Rain = 0
KPMS 081035Z 00007KT M02/M08 A3027 RMK A01 T10231078  RH  067%=      5-min Rain = 0
KPMS 081040Z 36007KT M02/M08 A3027 RMK A01 T10241079  RH  066%=      5-min Rain = 0
KPMS 081045Z 36008KT M02/M08 A3027 RMK A01 T10241081  RH  066%=      5-min Rain = 0
KPMS 081050Z 00008KT M02/M08 A3027 RMK A01 T10241080  RH  066%=      5-min Rain = 0
KPMS 081055Z 36008KT M02/M08 A3027 RMK A01 T10241081  RH  066%=      5-min Rain = 0
KPMS 081100Z 35007KT M03/M08 A3028 RMK A01 T10251082  RH  065%=      5-min Rain = 0
KPMS 081105Z 00008KT M03/M09 A3028 RMK A01 T10251085  RH  064%=      5-min Rain = 0
KPMS 081110Z 00007KT M03/M09 A3028 RMK A01 T10251088  RH  063%=      5-min Rain = 0
KPMS 081115Z 01008KT M03/M09 A3028 RMK A01 T10261089  RH  063%=      5-min Rain = 0
KPMS 081120Z 01007KT M03/M09 A3027 RMK A01 T10251086  RH  064%=      5-min Rain = 0
KPMS 081125Z 36008KT M03/M09 A3027 RMK A01 T10251085  RH  064%=      5-min Rain = 0
KPMS 081130Z 36009KT M03/M09 A3027 RMK A01 T10261086  RH  064%=      5-min Rain = 0
KPMS 081135Z 00008KT M03/M09 A3028 RMK A01 T10261087  RH  064%=      5-min Rain = 0
KPMS 081140Z 00008KT M03/M09 A3028 RMK A01 T10261088  RH  063%=      5-min Rain = 0
KPMS 081145Z 36009KT M03/M09 A3028 RMK A01 T10261088  RH  063%=      5-min Rain = 0
KPMS 081150Z 36008KT M03/M09 A3028 RMK A01 T10261088  RH  063%=      5-min Rain = 0
KPMS 081155Z 36008KT M03/M09 A3029 RMK A01 T10261090  RH  062%=      5-min Rain = 0
KPMS 081200Z 36009KT M03/M09 A3029 RMK A01 T10261089  RH  063%=      5-min Rain = 0
KPMS 081205Z 36008KT M03/M09 A3028 RMK A01 T10261088  RH  063%=      5-min Rain = 0
KPMS 081210Z 35008KT M03/M09 A3029 RMK A01 T10261088  RH  063%=      5-min Rain = 0
KPMS 081215Z 36007KT M03/M09 A303 RMK A01 T10261088  RH  063%=      5-min Rain = 0
KPMS 081220Z 35009KT M03/M09 A303 RMK A01 T10261087  RH  064%=      5-min Rain = 0
KPMS 081225Z 36010KT M03/M09 A3029 RMK A01 T10261086  RH  064%=      5-min Rain = 0
KPMS 081230Z 00008KT M03/M09 A3029 RMK A01 T10261086  RH  064%=      5-min Rain = 0
KPMS 081235Z 00010KT M03/M09 A3029 RMK A01 T10271087  RH  064%=      5-min Rain = 0
KPMS 081240Z 01010KT M03/M09 A3029 RMK A01 T10271086  RH  065%=      5-min Rain = 0
KPMS 081245Z 00009KT M03/M09 A3029 RMK A01 T10271087  RH  064%=      5-min Rain = 0
KPMS 081250Z 00009KT M03/M09 A3029 RMK A01 T10271087  RH  064%=      5-min Rain = 0
KPMS 081255Z 00009KT M03/M09 A3029 RMK A01 T10271086  RH  065%=      5-min Rain = 0
KPMS 081300Z 01009KT M03/M09 A3029 RMK A01 T10271086  RH  065%=      5-min Rain = 0
KPMS 081305Z 00008KT M03/M09 A3029 RMK A01 T10271086  RH  065%=      5-min Rain = 0
KPMS 081310Z 00009KT M03/M09 A3029 RMK A01 T10271085  RH  065%=      5-min Rain = 0
KPMS 081315Z 00008KT M03/M09 A3029 RMK A01 T10281086  RH  065%=      5-min Rain = 0
KPMS 081320Z 00008KT M03/M09 A3029 RMK A01 T10281087  RH  065%=      5-min Rain = 0
KPMS 081325Z 00007KT M03/M09 A3029 RMK A01 T10281085  RH  065%=      5-min Rain = 0
KPMS 081330Z 36008KT M03/M09 A303 RMK A01 T10281085  RH  065%=      5-min Rain = 0
KPMS 081335Z 36008KT M03/M09 A303 RMK A01 T10281085  RH  066%=      5-min Rain = 0
KPMS 081340Z 36008KT M03/M08 A303 RMK A01 T10281084  RH  066%=      5-min Rain = 0
KPMS 081345Z 35010KT M03/M08 A303 RMK A01 T10281084  RH  066%=      5-min Rain = 0
KPMS 081350Z 36011KT M03/M08 A303 RMK A01 T10281084  RH  066%=      5-min Rain = 0
KPMS 081355Z 36009KT M03/M08 A303 RMK A01 T10281082  RH  067%=      5-min Rain = 0
KPMS 081400Z 36009KT M03/M08 A303 RMK A01 T10281081  RH  067%=      5-min Rain = 0
KPMS 081405Z 35010KT M03/M08 A303 RMK A01 T10281082  RH  067%=      5-min Rain = 0
KPMS 081410Z 36010KT M03/M08 A303 RMK A01 T10281082  RH  068%=      5-min Rain = 0
KPMS 081415Z 01010KT M03/M08 A303 RMK A01 T10281080  RH  068%=      5-min Rain = 0
KPMS 081420Z 00009KT M03/M08 A303 RMK A01 T10281079  RH  069%=      5-min Rain = 0
KPMS 081425Z 35010KT M03/M08 A303 RMK A01 T10271079  RH  068%=      5-min Rain = 0
KPMS 081430Z 36010KT M03/M08 A303 RMK A01 T10281079  RH  069%=      5-min Rain = 0
KPMS 081435Z 35010KT M03/M08 A3031 RMK A01 T10271078  RH  069%=      5-min Rain = 0
KPMS 081440Z 00011KT M03/M08 A3031 RMK A01 T10271079  RH  068%=      5-min Rain = 0
KPMS 081445Z 00011KT M03/M08 A303 RMK A01 T10281078  RH  069%=      5-min Rain = 0
KPMS 081450Z 36010KT M03/M08 A303 RMK A01 T10271078  RH  069%=      5-min Rain = 0
KPMS 081455Z 00010KT M03/M08 A303 RMK A01 T10271078  RH  069%=      5-min Rain = 0
KPMS 081500Z 01009KT M03/M08 A303 RMK A01 T10261077  RH  069%=      5-min Rain = 0
KPMS 081505Z 01010KT M03/M08 A3031 RMK A01 T10261076  RH  069%=      5-min Rain = 0
KPMS 081510Z 00009KT M03/M08 A3031 RMK A01 T10251075  RH  069%=      5-min Rain = 0
KPMS 081515Z 00009KT M03/M07 A3031 RMK A01 T10251074  RH  070%=      5-min Rain = 0
KPMS 081520Z 01009KT M02/M07 A3031 RMK A01 T10241074  RH  069%=      5-min Rain = 0
KPMS 081525Z 01010KT M02/M08 A3031 RMK A01 T10241077  RH  067%=      5-min Rain = 0
KPMS 081530Z 01009KT M02/M08 A3032 RMK A01 T10231078  RH  067%=      5-min Rain = 0
KPMS 081535Z 01009KT M02/M08 A3032 RMK A01 T10211078  RH  066%=      5-min Rain = 0
KPMS 081540Z 00009KT M02/M08 A3032 RMK A01 T10211080  RH  065%=      5-min Rain = 0
KPMS 081545Z 36008KT M02/M08 A3032 RMK A01 T10211078  RH  066%=      5-min Rain = 0
KPMS 081550Z 00010KT M02/M08 A3032 RMK A01 T10201079  RH  065%=      5-min Rain = 0
KPMS 081555Z 00009KT M02/M08 A3032 RMK A01 T10191083  RH  062%=      5-min Rain = 0
KPMS 081600Z 00008KT M02/M08 A3032 RMK A01 T10181084  RH  061%=      5-min Rain = 0
KPMS 081605Z 01009KT M02/M09 A3032 RMK A01 T10161086  RH  060%=      5-min Rain = 0
KPMS 081610Z 02009KT M02/M09 A3032 RMK A01 T10151088  RH  058%=      5-min Rain = 0
KPMS 081615Z 02009KT M01/M09 A3032 RMK A01 T10141090  RH  057%=      5-min Rain = 0
KPMS 081620Z 01009KT M01/M09 A3032 RMK A01 T10141088  RH  058%=      5-min Rain = 0
KPMS 081625Z 01009KT M01/M09 A3032 RMK A01 T10131088  RH  057%=      5-min Rain = 0
KPMS 081630Z 01010KT M01/M09 A3032 RMK A01 T10131088  RH  057%=      5-min Rain = 0
KPMS 081635Z 01010KT M01/M09 A3032 RMK A01 T10121087  RH  057%=      5-min Rain = 0
KPMS 081640Z 01010KT M01/M09 A3032 RMK A01 T10111085  RH  058%=      5-min Rain = 0
KPMS 081645Z 01008KT M01/M08 A3032 RMK A01 T10091082  RH  058%=      5-min Rain = 0
KPMS 081650Z 00009KT M01/M08 A3032 RMK A01 T10071082  RH  057%=      5-min Rain = 0
KPMS 081655Z 00010KT M01/M09 A3032 RMK A01 T10071086  RH  056%=      5-min Rain = 0
KPMS 081700Z 01010KT M01/M09 A3031 RMK A01 T10081092  RH  053%=      5-min Rain = 0
KPMS 081705Z 02009KT M01/M09 A3031 RMK A01 T10051091  RH  053%=      5-min Rain = 0
KPMS 081710Z 02009KT M00/M09 A3031 RMK A01 T10041092  RH  052%=      5-min Rain = 0
KPMS 081715Z 01009KT M00/M09 A3031 RMK A01 T10021091  RH  052%=      5-min Rain = 0
KPMS 081720Z 01009KT M00/M09 A3031 RMK A01 T10021091  RH  052%=      5-min Rain = 0
KPMS 081725Z 01009KT M00/M10 A3031 RMK A01 T10011095  RH  050%=      5-min Rain = 0
KPMS 081730Z 02010KT 00/M10 A3031 RMK A01 T00011095  RH  049%=      5-min Rain = 0
KPMS 081735Z 01010KT 00/10 A3031 RMK A01 T00000-96  RH  049%=      5-min Rain = 0
KPMS 081740Z 01009KT M00/M09 A3031 RMK A01 T10011089  RH  052%=      5-min Rain = 0
KPMS 081745Z 02009KT M00/M09 A3031 RMK A01 T10011086  RH  053%=      5-min Rain = 0
KPMS 081750Z 01008KT M00/M09 A3031 RMK A01 T10021087  RH  054%=      5-min Rain = 0
KPMS 081755Z 01009KT M00/M09 A303 RMK A01 T10021088  RH  053%=      5-min Rain = 0
KPMS 081800Z 00009KT M00/M09 A303 RMK A01 T10031085  RH  054%=      5-min Rain = 0
KPMS 081805Z 01010KT M00/M09 A303 RMK A01 T10021086  RH  054%=      5-min Rain = 0
KPMS 081810Z 01010KT M00/M09 A303 RMK A01 T10021087  RH  053%=      5-min Rain = 0
KPMS 081815Z 00009KT M00/M08 A303 RMK A01 T10021083  RH  055%=      5-min Rain = 0
KPMS 081820Z 01010KT M00/M08 A303 RMK A01 T10011083  RH  054%=      5-min Rain = 0
KPMS 081825Z 01009KT 00/08 A3029 RMK A01 T00-00-83  RH  054%=      5-min Rain = 0
KPMS 081830Z 01009KT 00/M08 A3029 RMK A01 T00021080  RH  055%=      5-min Rain = 0
KPMS 081835Z 01009KT 00/M08 A3028 RMK A01 T00041079  RH  055%=      5-min Rain = 0
KPMS 081840Z 01009KT 01/M08 A3028 RMK A01 T00061079  RH  054%=      5-min Rain = 0
KPMS 081845Z 00008KT 01/M08 A3028 RMK A01 T00071081  RH  053%=      5-min Rain = 0
KPMS 081850Z 01008G13KT 01/M08 A3028 RMK A01 T00071081  RH  052%=      5-min Rain = 0
KPMS 081855Z 35009KT 01/M08 A3028 RMK A01 T00071079  RH  053%=      5-min Rain = 0
KPMS 081900Z 36009KT 01/M08 A3028 RMK A01 T00071079  RH  053%=      5-min Rain = 0
KPMS 081905Z 36008KT 01/M08 A3028 RMK A01 T00081079  RH  052%=      5-min Rain = 0
KPMS 081910Z 00009KT 01/M08 A3028 RMK A01 T00081080  RH  052%=      5-min Rain = 0
KPMS 081915Z 00008KT 01/M08 A3028 RMK A01 T00091078  RH  053%=      5-min Rain = 0
KPMS 081920Z 35009KT 01/M08 A3027 RMK A01 T00111078  RH  052%=      5-min Rain = 0
KPMS 081925Z 35009KT 01/M08 A3027 RMK A01 T00121077  RH  052%=      5-min Rain = 0
KPMS 081930Z 35008KT 02/M08 A3027 RMK A01 T00151075  RH  052%=      5-min Rain = 0
KPMS 081935Z 35007KT 02/M08 A3027 RMK A01 T00171075  RH  051%=      5-min Rain = 0
KPMS 081940Z 01008KT 02/M08 A3027 RMK A01 T00171075  RH  051%=      5-min Rain = 0
KPMS 081945Z 01007KT 02/M07 A3026 RMK A01 T00201072  RH  051%=      5-min Rain = 0
KPMS 081950Z 01007KT 02/M07 A3026 RMK A01 T00241069  RH  051%=      5-min Rain = 0
KPMS 081955Z 00008KT 02/M07 A3026 RMK A01 T00241067  RH  052%=      5-min Rain = 0
KPMS 082000Z 36007KT 02/M07 A3025 RMK A01 T00241066  RH  052%=      5-min Rain = 0
KPMS 082005Z 35007KT 02/M07 A3025 RMK A01 T00241066  RH  052%=      5-min Rain = 0
KPMS 082010Z 35007KT 02/M07 A3025 RMK A01 T00241065  RH  052%=      5-min Rain = 0
KPMS 082015Z 34007KT 03/M07 A3025 RMK A01 T00261065  RH  052%=      5-min Rain = 0
KPMS 082020Z 36007KT 03/M06 A3024 RMK A01 T00321061  RH  051%=      5-min Rain = 0
KPMS 082025Z 01005KT 03/M06 A3024 RMK A01 T00331061  RH  050%=      5-min Rain = 0
KPMS 082030Z 02006KT 03/M06 A3024 RMK A01 T00341057  RH  052%=      5-min Rain = 0
KPMS 082035Z 35006G12KT 04/M06 A3024 RMK A01 T00361057  RH  051%=      5-min Rain = 0
KPMS 082040Z 33007KT 03/M06 A3024 RMK A01 T00341060  RH  051%=      5-min Rain = 0
KPMS 082045Z 34005KT 03/M06 A3024 RMK A01 T00331056  RH  053%=      5-min Rain = 0
KPMS 082050Z 01007KT 04/M06 A3024 RMK A01 T00381060  RH  049%=      5-min Rain = 0
KPMS 082055Z 34007KT 04/M06 A3024 RMK A01 T00351062  RH  050%=      5-min Rain = 0
KPMS 082100Z 34005KT 03/M06 A3024 RMK A01 T00331059  RH  051%=      5-min Rain = 0
KPMS 082105Z 35006KT 04/M06 A3023 RMK A01 T00351058  RH  051%=      5-min Rain = 0
KPMS 082110Z 34006KT 03/M06 A3023 RMK A01 T00331058  RH  052%=      5-min Rain = 0
KPMS 082115Z 33007KT 03/M06 A3023 RMK A01 T00341059  RH  051%=      5-min Rain = 0
KPMS 082120Z 33005KT 04/M06 A3023 RMK A01 T00361059  RH  050%=      5-min Rain = 0
KPMS 082125Z 00007KT 04/M06 A3023 RMK A01 T00371061  RH  049%=      5-min Rain = 0
KPMS 082130Z 02004KT 04/M06 A3023 RMK A01 T00371061  RH  049%=      5-min Rain = 0
KPMS 082135Z 02007KT 04/M06 A3023 RMK A01 T00371061  RH  049%=      5-min Rain = 0
KPMS 082140Z 35005KT 04/M06 A3023 RMK A01 T00361061  RH  050%=      5-min Rain = 0
KPMS 082145Z 02006KT 04/M06 A3023 RMK A01 T00351059  RH  051%=      5-min Rain = 0
KPMS 082150Z 02006KT 04/M06 A3023 RMK A01 T00361058  RH  051%=      5-min Rain = 0
KPMS 082155Z 03004KT 04/M06 A3023 RMK A01 T00361058  RH  051%=      5-min Rain = 0
KPMS 082200Z 35006KT 04/M06 A3023 RMK A01 T00361058  RH  051%=      5-min Rain = 0
KPMS 082205Z 34005KT 03/M06 A3023 RMK A01 T00341058  RH  051%=      5-min Rain = 0
KPMS 082210Z 36005KT 03/M06 A3023 RMK A01 T00331058  RH  052%=      5-min Rain = 0
KPMS 082215Z 01006KT 04/M06 A3023 RMK A01 T00351059  RH  051%=      5-min Rain = 0
KPMS 082220Z 01005KT 03/M06 A3023 RMK A01 T00341058  RH  052%=      5-min Rain = 0
KPMS 082225Z 02006KT 03/M06 A3023 RMK A01 T00341058  RH  052%=      5-min Rain = 0
KPMS 082230Z 35004KT 03/M06 A3023 RMK A01 T00331057  RH  052%=      5-min Rain = 0
KPMS 082235Z 35005KT 03/M06 A3023 RMK A01 T00321059  RH  052%=      5-min Rain = 0
KPMS 082240Z 36005KT 03/M06 A3023 RMK A01 T00311062  RH  051%=      5-min Rain = 0
KPMS 082245Z 36005KT 03/M06 A3023 RMK A01 T00301062  RH  051%=      5-min Rain = 0
KPMS 082250Z 01006KT 03/M06 A3023 RMK A01 T00291064  RH  051%=      5-min Rain = 0
KPMS 082255Z 01004KT 03/M07 A3024 RMK A01 T00291066  RH  050%=      5-min Rain = 0
KPMS 082300Z 01005KT 03/M07 A3023 RMK A01 T00271067  RH  051%=      5-min Rain = 0
KPMS 082305Z 01004KT 02/M07 A3024 RMK A01 T00241067  RH  051%=      5-min Rain = 0
KPMS 082310Z 00004KT 02/M07 A3024 RMK A01 T00221068  RH  052%=      5-min Rain = 0
KPMS 082315Z 36004KT 02/M07 A3024 RMK A01 T00181069  RH  053%=      5-min Rain = 0
KPMS 082320Z 35004KT 01/M07 A3024 RMK A01 T00131069  RH  055%=      5-min Rain = 0
KPMS 082325Z 35004KT 01/M07 A3024 RMK A01 T00091070  RH  056%=      5-min Rain = 0
KPMS 082330Z 35004KT 00/M07 A3024 RMK A01 T00041073  RH  057%=      5-min Rain = 0
KPMS 082335Z 35004KT 00/07 A3024 RMK A01 T00-00-72  RH  059%=      5-min Rain = 0
KPMS 082340Z 35003KT 00/07 A3024 RMK A01 T00-00-70  RH  060%=      5-min Rain = 0
KPMS 082345Z 36003KT 00/07 A3024 RMK A01 T00-00-71  RH  060%=      5-min Rain = 0
KPMS 082350Z 00003KT M00/M07 A3024 RMK A01 T10011070  RH  060%=      5-min Rain = 0
KPMS 082355Z 36003KT M00/M07 A3024 RMK A01 T10031073  RH  060%=      5-min Rain = 0
KPMS 090000Z 35003KT M01/M07 A3025 RMK A01 T10081074  RH  062%=      5-min Rain = 0
KPMS 090005Z 00003KT M01/M07 A3025 RMK A01 T10111074  RH  063%=      5-min Rain = 0
KPMS 090010Z 00003KT M01/M07 A3025 RMK A01 T10121072  RH  064%=      5-min Rain = 0
KPMS 090015Z 00003KT M01/M07 A3025 RMK A01 T10141074  RH  064%=      5-min Rain = 0
KPMS 090020Z 03002KT M02/M07 A3025 RMK A01 T10161073  RH  066%=      5-min Rain = 0
KPMS 090025Z 03002KT M01/M07 A3025 RMK A01 T10121070  RH  065%=      5-min Rain = 0
KPMS 090030Z 02003KT M01/M07 A3025 RMK A01 T10101070  RH  064%=      5-min Rain = 0
KPMS 090035Z 01003KT M01/M07 A3025 RMK A01 T10121072  RH  064%=      5-min Rain = 0
KPMS 090040Z 01003KT M02/M07 A3026 RMK A01 T10151073  RH  066%=      5-min Rain = 0
KPMS 090045Z 36002KT M02/M07 A3026 RMK A01 T10181074  RH  066%=      5-min Rain = 0
KPMS 090050Z 35002KT M02/M07 A3025 RMK A01 T10211074  RH  068%=      5-min Rain = 0
KPMS 090055Z 35003KT M02/M07 A3026 RMK A01 T10221074  RH  069%=      5-min Rain = 0
KPMS 090100Z 35003KT M02/M07 A3026 RMK A01 T10231074  RH  069%=      5-min Rain = 0
KPMS 090105Z 35002KT M03/M08 A3026 RMK A01 T10251075  RH  069%=      5-min Rain = 0
KPMS 090110Z 01003KT M02/M07 A3026 RMK A01 T10241074  RH  070%=      5-min Rain = 0
KPMS 090115Z 01003KT M02/M07 A3026 RMK A01 T10241073  RH  069%=      5-min Rain = 0
KPMS 090120Z 01003KT M03/M07 A3026 RMK A01 T10251074  RH  070%=      5-min Rain = 0
KPMS 090125Z 02003KT M03/M07 A3026 RMK A01 T10251074  RH  070%=      5-min Rain = 0
KPMS 090130Z 02003KT M03/M08 A3026 RMK A01 T10261075  RH  070%=      5-min Rain = 0
KPMS 090135Z 01003KT M03/M08 A3026 RMK A01 T10281076  RH  070%=      5-min Rain = 0
KPMS 090140Z 01003KT M03/M08 A3026 RMK A01 T10301077  RH  071%=      5-min Rain = 0
KPMS 090145Z 01002KT M03/M07 A3027 RMK A01 T10331071  RH  076%=      5-min Rain = 0
KPMS 090150Z 35002KT M03/M07 A3027 RMK A01 T10341071  RH  076%=      5-min Rain = 0
KPMS 090155Z 34002KT M03/M07 A3027 RMK A01 T10341073  RH  076%=      5-min Rain = 0
KPMS 090200Z 32002KT M04/M07 A3027 RMK A01 T10351072  RH  076%=      5-min Rain = 0
KPMS 090205Z 32002KT M03/M07 A3027 RMK A01 T10341074  RH  075%=      5-min Rain = 0
KPMS 090210Z 33002KT M03/M08 A3027 RMK A01 T10331075  RH  074%=      5-min Rain = 0
KPMS 090215Z 34002KT M03/M08 A3027 RMK A01 T10331077  RH  072%=      5-min Rain = 0
KPMS 090220Z 36002KT M03/M08 A3027 RMK A01 T10331080  RH  071%=      5-min Rain = 0
KPMS 090225Z 01003KT M03/M08 A3028 RMK A01 T10341082  RH  071%=      5-min Rain = 0
KPMS 090230Z 02003KT M04/M08 A3028 RMK A01 T10351082  RH  071%=      5-min Rain = 0
KPMS 090235Z 02003KT M04/M08 A3028 RMK A01 T10361082  RH  072%=      5-min Rain = 0
KPMS 090240Z 01002KT M04/M08 A3028 RMK A01 T10391082  RH  073%=      5-min Rain = 0
KPMS 090245Z 01002KT M04/M08 A3028 RMK A01 T10421083  RH  074%=      5-min Rain = 0
KPMS 090250Z 00002KT M04/M08 A3027 RMK A01 T10441084  RH  075%=      5-min Rain = 0
KPMS 090255Z 35002KT M04/M08 A3027 RMK A01 T10441084  RH  075%=      5-min Rain = 0
KPMS 090300Z 00002KT M04/M08 A3027 RMK A01 T10431084  RH  074%=      5-min Rain = 0
KPMS 090305Z 02002KT M04/M09 A3027 RMK A01 T10431087  RH  072%=      5-min Rain = 0
KPMS 090310Z 02002KT M04/M09 A3027 RMK A01 T10441091  RH  070%=      5-min Rain = 0
KPMS 090315Z 02002KT M04/M09 A3027 RMK A01 T10441094  RH  069%=      5-min Rain = 0
KPMS 090320Z 02002KT M04/M09 A3027 RMK A01 T10441094  RH  069%=      5-min Rain = 0
KPMS 090325Z 03002KT M05/M10 A3028 RMK A01 T10451095  RH  069%=      5-min Rain = 0
KPMS 090330Z 36002KT M05/M09 A3028 RMK A01 T10461093  RH  071%=      5-min Rain = 0
KPMS 090335Z 33002KT M04/M08 A3028 RMK A01 T10441084  RH  075%=      5-min Rain = 0
KPMS 090340Z 33002KT M04/M09 A3028 RMK A01 T10431088  RH  072%=      5-min Rain = 0
KPMS 090345Z 34003KT M04/M09 A3028 RMK A01 T10441093  RH  070%=      5-min Rain = 0
KPMS 090350Z 33002KT M05/M10 A3028 RMK A01 T10451097  RH  068%=      5-min Rain = 0
KPMS 090355Z 32002KT M05/M10 A3028 RMK A01 T10461099  RH  067%=      5-min Rain = 0
KPMS 090400Z 32002KT M05/M10 A3028 RMK A01 T10461100  RH  067%=      5-min Rain = 0
KPMS 090405Z 31002KT M05/M10 A3028 RMK A01 T10461100  RH  067%=      5-min Rain = 0
KPMS 090410Z 33002KT M04/M10 A3028 RMK A01 T10441101  RH  065%=      5-min Rain = 0
KPMS 090415Z 33002KT M04/M10 A3028 RMK A01 T10441100  RH  066%=      5-min Rain = 0
KPMS 090420Z 33002KT M05/M10 A3028 RMK A01 T10481097  RH  069%=      5-min Rain = 0
KPMS 090425Z 33002KT M05/M10 A3028 RMK A01 T10491103  RH  067%=      5-min Rain = 0
KPMS 090430Z 33003KT M05/M10 A3028 RMK A01 T10501104  RH  066%=      5-min Rain = 0
KPMS 090435Z 33003KT M05/M10 A3028 RMK A01 T10541102  RH  070%=      5-min Rain = 0
KPMS 090440Z 34003KT M06/M11 A3028 RMK A01 T10561107  RH  068%=      5-min Rain = 0
KPMS 090445Z 34003KT M06/M11 A3028 RMK A01 T10551111  RH  066%=      5-min Rain = 0
KPMS 090450Z 33002KT M05/M11 A3029 RMK A01 T10521113  RH  063%=      5-min Rain = 0
KPMS 090455Z 32002KT M05/M11 A3029 RMK A01 T10471108  RH  063%=      5-min Rain = 0
KPMS 090500Z 31002KT M05/M11 A3029 RMK A01 T10451107  RH  062%=      5-min Rain = 0
KPMS 090505Z 32002KT M05/M11 A3029 RMK A01 T10451112  RH  060%=      5-min Rain = 0
KPMS 090510Z 34002KT M04/M11 A303 RMK A01 T10441114  RH  059%=      5-min Rain = 0
KPMS 090515Z 34002KT M04/M11 A303 RMK A01 T10441114  RH  059%=      5-min Rain = 0
KPMS 090520Z 34002KT M05/M11 A303 RMK A01 T10451113  RH  060%=      5-min Rain = 0
KPMS 090525Z 35002KT M05/M11 A303 RMK A01 T10481112  RH  062%=      5-min Rain = 0
KPMS 090530Z 36003KT M05/M11 A303 RMK A01 T10521110  RH  065%=      5-min Rain = 0
KPMS 090535Z 00003KT M06/M11 A303 RMK A01 T10551112  RH  065%=      5-min Rain = 0
KPMS 090540Z 34003KT M06/M11 A303 RMK A01 T10551113  RH  064%=      5-min Rain = 0
KPMS 090545Z 34003KT M05/M11 A303 RMK A01 T10531111  RH  064%=      5-min Rain = 0
KPMS 090550Z 32003KT M05/M11 A303 RMK A01 T10511108  RH  065%=      5-min Rain = 0
KPMS 090555Z 31003KT M05/M11 A303 RMK A01 T10491109  RH  064%=      5-min Rain = 0

Page generated in 0.0088 seconds.